Time;durP1;ratioP1;P1;durP2;ratioP2;P2;SDS_P1;SDS_P2;PMS_P1;PMS_P2;Temp;Humidity;BMP_temperature;BMP_pressure;BME280_temperature;BME280_humidity;BME280_pressure;Samples;Min_cycle;Max_cycle;Signal;HPM_P1;HPM_P2
2021/03/15 00:00:49;;;;;;;8.93;3.00;;;4.20;99.90;;;;;;5009350;28;20455;-74
2021/03/15 00:03:15;;;;;;;3.07;2.80;;;4.20;99.90;;;;;;5009472;28;20430;-75
2021/03/15 00:05:41;;;;;;;3.40;2.90;;;4.20;99.90;;;;;;5004991;28;20434;-74
2021/03/15 00:08:07;;;;;;;3.03;2.73;;;4.20;99.90;;;;;;5004699;28;20465;-75
2021/03/15 00:10:33;;;;;;;4.03;2.63;;;4.20;99.90;;;;;;5003113;28;20703;-74
2021/03/15 00:12:58;;;;;;;2.87;2.67;;;4.20;99.90;;;;;;5008764;28;20428;-74
2021/03/15 00:15:25;;;;;;;3.33;3.07;;;4.10;99.90;;;;;;5001292;28;20185;-74
2021/03/15 00:17:51;;;;;;;4.20;2.20;;;4.10;99.90;;;;;;5004783;28;20188;-75
2021/03/15 00:20:18;;;;;;;5.73;3.07;;;4.10;99.90;;;;;;5008811;28;20878;-73
2021/03/15 00:22:45;;;;;;;2.97;2.70;;;4.10;99.90;;;;;;5000834;28;20581;-74
2021/03/15 00:25:12;;;;;;;3.27;3.07;;;4.00;99.90;;;;;;5006903;28;20425;-75
2021/03/15 00:27:39;;;;;;;3.97;2.80;;;4.00;99.90;;;;;;5005754;28;20466;-74
2021/03/15 00:30:07;;;;;;;4.93;3.20;;;3.90;99.90;;;;;;5004130;28;20606;-75
2021/03/15 00:32:32;;;;;;;4.37;2.97;;;3.90;99.90;;;;;;5004628;28;20457;-74
2021/03/15 00:34:58;;;;;;;4.47;3.33;;;3.90;99.90;;;;;;5005360;28;20398;-74
2021/03/15 00:37:23;;;;;;;3.30;2.70;;;3.80;99.90;;;;;;5003725;28;20199;-74
2021/03/15 00:39:49;;;;;;;7.03;2.90;;;3.80;99.90;;;;;;5012042;28;20228;-74
2021/03/15 00:42:15;;;;;;;6.67;3.53;;;3.80;99.90;;;;;;5012583;28;20202;-75
2021/03/15 00:44:40;;;;;;;5.10;2.70;;;3.70;99.90;;;;;;5000986;28;20184;-75
2021/03/15 00:47:06;;;;;;;3.30;3.00;;;3.70;99.90;;;;;;5007676;28;20200;-74
2021/03/15 00:49:32;;;;;;;3.93;2.90;;;3.60;99.90;;;;;;5004796;28;20203;-74
2021/03/15 00:51:57;;;;;;;3.37;3.07;;;3.60;99.90;;;;;;5006151;28;20219;-74
2021/03/15 00:54:23;;;;;;;3.47;2.60;;;3.60;99.90;;;;;;5004309;28;20179;-74
2021/03/15 00:56:48;;;;;;;4.30;3.50;;;3.70;99.90;;;;;;5003801;28;20219;-74
2021/03/15 00:59:14;;;;;;;2.63;2.43;;;3.60;99.90;;;;;;5004041;28;20208;-74
2021/03/15 01:01:40;;;;;;;4.10;2.57;;;3.70;99.90;;;;;;5011968;28;20194;-74
2021/03/15 01:04:07;;;;;;;3.47;2.23;;;3.70;99.90;;;;;;5007402;28;20431;-75
2021/03/15 01:06:33;;;;;;;10.80;3.03;;;3.70;99.90;;;;;;5001429;28;20472;-75
2021/03/15 01:08:58;;;;;;;8.40;3.30;;;3.70;99.90;;;;;;5000600;28;20888;-74
2021/03/15 01:11:25;;;;;;;9.90;3.70;;;3.70;99.90;;;;;;5004715;28;20218;-74
2021/03/15 01:13:52;;;;;;;5.70;3.00;;;3.70;99.90;;;;;;5000880;28;20568;-74
2021/03/15 01:16:18;;;;;;;2.90;2.53;;;3.70;99.90;;;;;;5004901;28;20409;-74
2021/03/15 01:18:43;;;;;;;11.53;3.70;;;3.70;99.90;;;;;;4999847;28;20426;-74
2021/03/15 01:21:11;;;;;;;10.40;2.87;;;3.60;99.90;;;;;;5007455;28;20808;-74
2021/03/15 01:23:36;;;;;;;7.10;3.93;;;3.60;99.90;;;;;;5003235;28;20567;-74
2021/03/15 01:26:02;;;;;;;3.70;2.87;;;3.60;99.90;;;;;;5007927;28;20450;-75
2021/03/15 01:28:27;;;;;;;4.80;3.20;;;3.60;99.90;;;;;;5002047;28;20257;-74
2021/03/15 01:30:53;;;;;;;8.07;3.20;;;3.50;99.90;;;;;;5005994;28;20203;-75
2021/03/15 01:33:18;;;;;;;5.53;3.30;;;3.50;99.90;;;;;;5011691;28;20188;-75
2021/03/15 01:35:44;;;;;;;6.80;3.47;;;3.40;99.90;;;;;;5009444;28;20198;-76
2021/03/15 01:38:09;;;;;;;4.63;3.47;;;3.40;99.90;;;;;;4995832;28;20191;-75
2021/03/15 01:40:36;;;;;;;5.40;3.23;;;3.40;99.90;;;;;;5001048;28;20273;-75
2021/03/15 01:43:04;;;;;;;4.73;3.00;;;3.30;99.90;;;;;;5007750;28;20191;-75
2021/03/15 01:45:29;;;;;;;3.60;3.30;;;3.30;99.90;;;;;;5003856;28;20525;-74
2021/03/15 01:47:55;;;;;;;2.73;2.53;;;3.20;99.90;;;;;;5010362;28;20473;-74
2021/03/15 01:50:21;;;;;;;9.73;2.90;;;3.10;99.90;;;;;;5005835;28;20233;-74
2021/03/15 01:52:48;;;;;;;4.17;3.77;;;3.10;99.90;;;;;;5003186;28;20692;-74
2021/03/15 01:55:16;;;;;;;4.93;3.20;;;3.00;99.90;;;;;;5007840;28;20423;-74
2021/03/15 01:57:42;;;;;;;4.83;3.30;;;3.00;99.90;;;;;;5010181;28;20475;-75
2021/03/15 02:00:10;;;;;;;7.53;2.40;;;3.00;99.90;;;;;;5007317;28;20461;-74
2021/03/15 02:02:37;;;;;;;2.80;2.60;;;2.90;99.90;;;;;;5010697;28;20556;-75
2021/03/15 02:05:04;;;;;;;4.47;2.77;;;2.80;99.90;;;;;;5008660;28;20441;-75
2021/03/15 02:07:29;;;;;;;6.03;2.97;;;2.80;99.90;;;;;;5001778;28;20547;-74
2021/03/15 02:09:55;;;;;;;5.67;3.30;;;2.70;99.90;;;;;;5002933;28;20542;-74
2021/03/15 02:12:52;;;;;;;6.20;2.90;;;2.60;99.90;;;;;;5013658;28;20629;-74
2021/03/15 02:15:39;;;;;;;6.70;3.10;;;2.60;99.90;;;;;;5005094;28;20234;-74
2021/03/15 02:18:13;;;;;;;3.23;2.93;;;2.50;99.90;;;;;;5015590;28;20402;-74
2021/03/15 02:21:19;;;;;;;3.60;3.17;;;2.40;99.90;;;;;;5007981;28;20467;-74
2021/03/15 02:23:57;;;;;;;3.83;3.27;;;2.40;99.90;;;;;;5006693;28;20512;-73
2021/03/15 02:26:50;;;;;;;4.73;3.40;;;2.30;99.90;;;;;;5012735;28;20543;-74
2021/03/15 02:29:43;;;;;;;7.40;4.77;;;2.20;99.90;;;;;;5007997;28;20496;-74
2021/03/15 02:32:46;;;;;;;10.70;5.20;;;2.10;99.90;;;;;;5009080;28;20431;-74
2021/03/15 02:35:21;;;;;;;5.57;4.00;;;2.10;99.90;;;;;;5006056;28;20448;-75
2021/03/15 02:37:57;;;;;;;8.60;3.83;;;2.00;99.90;;;;;;5002825;28;20857;-74
2021/03/15 02:40:31;;;;;;;7.00;4.83;;;2.00;99.90;;;;;;5015223;28;20468;-75
2021/03/15 02:43:01;;;;;;;8.80;5.63;;;1.90;99.90;;;;;;5014805;28;21001;-75
2021/03/15 02:45:27;;;;;;;11.63;5.40;;;1.90;99.90;;;;;;5011046;28;20936;-74
2021/03/15 02:47:53;;;;;;;9.87;6.90;;;1.90;99.90;;;;;;5006437;28;20467;-75
2021/03/15 02:50:22;;;;;;;14.50;7.87;;;1.90;99.90;;;;;;5009274;28;20464;-74
2021/03/15 02:52:51;;;;;;;10.03;7.07;;;1.90;99.90;;;;;;5010245;28;20871;-74
2021/03/15 02:55:21;;;;;;;15.53;6.80;;;1.90;99.90;;;;;;5004940;28;20979;-74
2021/03/15 02:57:49;;;;;;;12.60;5.07;;;2.00;99.90;;;;;;5014289;28;20439;-73
2021/03/15 03:00:16;;;;;;;6.57;4.17;;;2.00;99.90;;;;;;5007230;28;20880;-75
2021/03/15 03:02:44;;;;;;;8.13;4.20;;;2.00;99.90;;;;;;5010443;28;20430;-74
2021/03/15 03:05:11;;;;;;;5.20;4.00;;;2.00;99.90;;;;;;5010361;28;20432;-74
2021/03/15 03:07:40;;;;;;;7.43;4.20;;;2.10;99.90;;;;;;5007404;28;21231;-75
2021/03/15 03:10:07;;;;;;;6.97;4.00;;;2.00;99.90;;;;;;5001461;28;20469;-75
2021/03/15 03:12:34;;;;;;;7.03;4.00;;;2.10;99.90;;;;;;5004539;28;20461;-75
2021/03/15 03:15:05;;;;;;;14.00;4.17;;;2.10;99.90;;;;;;5005681;28;20448;-75
2021/03/15 03:17:34;;;;;;;9.63;3.83;;;2.00;99.90;;;;;;5009963;28;20429;-75
2021/03/15 03:20:00;;;;;;;6.30;3.63;;;2.00;99.90;;;;;;5005889;28;20489;-75
2021/03/15 03:22:27;;;;;;;7.10;4.40;;;2.00;99.90;;;;;;5013714;28;20545;-75
2021/03/15 03:24:54;;;;;;;7.60;3.80;;;1.90;99.90;;;;;;5013818;28;20465;-74
2021/03/15 03:27:20;;;;;;;5.60;3.77;;;1.90;99.90;;;;;;5013658;28;20478;-74
2021/03/15 03:29:47;;;;;;;6.20;3.97;;;1.90;99.90;;;;;;5009654;28;20945;-74
2021/03/15 03:32:13;;;;;;;5.87;3.87;;;1.90;99.90;;;;;;5009137;28;20186;-74
2021/03/15 03:34:40;;;;;;;4.30;3.70;;;1.80;99.90;;;;;;5005593;28;20969;-75
2021/03/15 03:37:06;;;;;;;5.97;4.67;;;1.80;99.90;;;;;;5009755;28;20440;-75
2021/03/15 03:39:32;;;;;;;7.33;4.67;;;1.80;99.90;;;;;;5007437;28;20464;-74
2021/03/15 03:41:57;;;;;;;5.43;4.30;;;1.80;99.90;;;;;;5003934;28;20485;-74
2021/03/15 03:44:23;;;;;;;4.23;3.83;;;1.80;99.90;;;;;;4996881;28;20243;-75
2021/03/15 03:46:48;;;;;;;5.83;3.93;;;1.80;99.90;;;;;;5010461;28;20262;-75
2021/03/15 03:49:15;;;;;;;8.07;3.70;;;2.00;99.90;;;;;;5009767;28;20237;-75
2021/03/15 03:51:53;;;;;;;7.90;3.03;;;2.10;99.90;;;;;;5009437;28;20247;-75
2021/03/15 03:54:33;;;;;;;13.30;3.27;;;2.30;99.90;;;;;;5013315;28;20517;-74
2021/03/15 03:57:08;;;;;;;9.83;3.20;;;2.40;99.90;;;;;;5013306;28;20427;-75
2021/03/15 03:59:37;;;;;;;7.30;2.60;;;2.50;99.90;;;;;;5008993;28;20461;-75
2021/03/15 04:02:04;;;;;;;9.40;3.50;;;2.60;99.90;;;;;;5009861;28;20532;-74
2021/03/15 04:04:40;;;;;;;4.37;3.10;;;2.60;99.90;;;;;;5008808;28;20440;-75
2021/03/15 04:07:07;;;;;;;5.17;2.60;;;2.70;99.90;;;;;;5006870;28;20528;-75
2021/03/15 04:09:35;;;;;;;5.73;2.77;;;2.80;99.90;;;;;;4998121;28;20455;-75
2021/03/15 04:12:06;;;;;;;3.13;2.70;;;3.00;99.90;;;;;;4998771;28;20742;-74
2021/03/15 04:14:39;;;;;;;12.97;3.10;;;3.00;99.90;;;;;;5012966;28;20418;-75
2021/03/15 04:17:08;;;;;;;2.57;2.13;;;3.10;99.90;;;;;;5009100;28;20441;-75
2021/03/15 04:19:45;;;;;;;4.37;2.60;;;3.30;99.90;;;;;;5008350;28;20945;-75
2021/03/15 04:22:12;;;;;;;6.03;2.80;;;3.30;99.90;;;;;;5009589;28;20437;-75
2021/03/15 04:24:41;;;;;;;5.37;2.67;;;3.40;99.90;;;;;;5001438;28;20441;-75
2021/03/15 04:27:08;;;;;;;5.37;2.73;;;3.40;99.90;;;;;;5006913;28;21023;-75
2021/03/15 04:29:35;;;;;;;9.80;3.70;;;3.40;99.90;;;;;;5006908;28;20460;-75
2021/03/15 04:32:04;;;;;;;4.30;2.67;;;3.40;99.90;;;;;;5011284;28;20513;-74
2021/03/15 04:34:33;;;;;;;5.37;2.73;;;3.40;99.90;;;;;;5008000;28;20516;-75
2021/03/15 04:37:01;;;;;;;3.97;2.60;;;3.40;99.90;;;;;;5008389;28;20554;-75
2021/03/15 04:39:30;;;;;;;2.53;2.33;;;3.40;99.90;;;;;;5004834;28;20834;-75
2021/03/15 04:42:00;;;;;;;4.10;3.03;;;3.40;99.90;;;;;;5009797;28;20434;-73
2021/03/15 04:44:26;;;;;;;3.07;2.80;;;3.50;99.90;;;;;;5005614;28;20802;-75
2021/03/15 04:46:53;;;;;;;2.53;2.33;;;3.50;99.90;;;;;;5004742;28;21115;-75
2021/03/15 04:49:18;;;;;;;8.20;2.80;;;3.50;99.90;;;;;;5006236;28;20537;-75
2021/03/15 04:51:45;;;;;;;5.60;2.70;;;3.50;99.90;;;;;;5008445;28;20577;-75
2021/03/15 04:54:11;;;;;;;5.80;2.73;;;3.50;99.90;;;;;;5005367;28;20772;-74
2021/03/15 04:56:38;;;;;;;3.07;2.40;;;3.50;99.90;;;;;;5008605;28;20430;-75
2021/03/15 04:59:06;;;;;;;3.00;2.10;;;3.50;99.90;;;;;;5008352;28;20849;-75
2021/03/15 05:01:35;;;;;;;6.50;3.00;;;3.40;99.90;;;;;;5006417;28;20526;-75
2021/03/15 05:04:05;;;;;;;2.50;2.30;;;3.50;99.90;;;;;;5004895;28;20441;-76
2021/03/15 05:06:32;;;;;;;3.80;3.00;;;3.50;99.90;;;;;;5005872;28;20505;-75
2021/03/15 05:08:59;;;;;;;4.40;2.50;;;3.50;99.90;;;;;;5004345;28;20470;-75
2021/03/15 05:11:32;;;;;;;5.33;3.03;;;3.50;99.90;;;;;;5004409;28;20435;-74
2021/03/15 05:14:01;;;;;;;5.10;3.40;;;3.50;99.90;;;;;;5001738;28;20437;-75
2021/03/15 05:16:33;;;;;;;6.47;2.63;;;3.50;99.90;;;;;;5003685;28;20787;-74
2021/03/15 05:18:59;;;;;;;3.83;2.63;;;3.50;99.90;;;;;;5003747;28;20454;-75
2021/03/15 05:21:26;;;;;;;6.83;3.73;;;3.50;99.90;;;;;;5008479;28;20794;-75
2021/03/15 05:23:55;;;;;;;4.93;3.87;;;3.50;99.90;;;;;;5007955;28;20426;-75
2021/03/15 05:26:22;;;;;;;4.33;2.97;;;3.40;99.90;;;;;;5007111;28;20519;-74
2021/03/15 05:28:48;;;;;;;8.50;4.07;;;3.40;99.90;;;;;;5007873;28;20512;-74
2021/03/15 05:31:15;;;;;;;3.77;2.57;;;3.40;99.90;;;;;;5004022;28;20522;-72
2021/03/15 05:33:43;;;;;;;5.03;3.07;;;3.40;99.90;;;;;;5005644;28;20678;-72
2021/03/15 05:36:10;;;;;;;4.23;3.20;;;3.40;99.90;;;;;;5009986;28;20429;-72
2021/03/15 05:38:38;;;;;;;8.03;3.23;;;3.40;99.90;;;;;;5001865;28;20421;-72
2021/03/15 05:41:07;;;;;;;2.63;2.43;;;3.40;99.90;;;;;;5002150;28;20808;-72
2021/03/15 05:44:07;;;;;;;4.03;2.30;;;3.40;99.90;;;;;;5001340;28;20425;-72
2021/03/15 05:47:13;;;;;;;3.90;3.50;;;3.50;99.90;;;;;;5009982;28;20466;-72
2021/03/15 05:49:58;;;;;;;3.53;3.23;;;3.50;99.90;;;;;;5007515;28;20451;-73
2021/03/15 05:53:02;;;;;;;4.60;2.87;;;3.50;99.90;;;;;;5011374;28;20447;-72
2021/03/15 05:55:49;;;;;;;2.87;2.67;;;3.50;99.90;;;;;;5014473;28;20495;-72
2021/03/15 05:58:52;;;;;;;5.20;2.60;;;3.40;99.90;;;;;;5013954;28;20835;-72
2021/03/15 06:01:47;;;;;;;3.63;2.60;;;3.50;99.90;;;;;;5011591;28;20884;-72
2021/03/15 06:04:50;;;;;;;3.40;2.63;;;3.50;99.90;;;;;;5006071;28;20520;-72
2021/03/15 06:07:26;;;;;;;5.40;2.97;;;3.50;99.90;;;;;;5004014;28;20497;-72
2021/03/15 06:10:05;;;;;;;3.13;2.50;;;3.50;99.90;;;;;;5011439;28;20822;-70
2021/03/15 06:12:45;;;;;;;4.27;2.77;;;3.50;99.90;;;;;;5004589;28;20798;-70
2021/03/15 06:15:12;;;;;;;6.20;3.23;;;3.50;99.90;;;;;;5006062;28;20426;-70
2021/03/15 06:17:38;;;;;;;6.30;2.47;;;3.60;99.90;;;;;;5002597;28;20865;-71
2021/03/15 06:20:06;;;;;;;3.10;2.40;;;3.60;99.90;;;;;;5009959;28;20450;-70
2021/03/15 06:22:33;;;;;;;2.40;2.20;;;3.60;99.90;;;;;;5001563;28;20472;-70
2021/03/15 06:25:00;;;;;;;2.47;2.30;;;3.60;99.90;;;;;;5012484;28;20441;-70
2021/03/15 06:27:29;;;;;;;3.00;2.80;;;3.60;99.90;;;;;;5015424;28;20572;-70
2021/03/15 06:29:56;;;;;;;4.20;2.50;;;3.60;99.90;;;;;;5009820;28;20441;-70
2021/03/15 06:32:26;;;;;;;6.20;2.60;;;3.50;99.90;;;;;;5010391;28;20505;-70
2021/03/15 06:34:54;;;;;;;3.37;2.00;;;3.60;99.90;;;;;;5002563;28;20422;-70
2021/03/15 06:37:21;;;;;;;3.00;2.17;;;3.60;99.90;;;;;;5002196;28;20418;-70
2021/03/15 06:39:50;;;;;;;3.80;2.60;;;3.60;99.90;;;;;;4998951;28;20455;-70
2021/03/15 06:42:17;;;;;;;6.03;2.90;;;3.60;99.90;;;;;;5002479;28;20434;-70
2021/03/15 06:44:43;;;;;;;2.60;2.40;;;3.60;99.90;;;;;;5002353;28;20453;-70
2021/03/15 06:47:09;;;;;;;2.27;2.10;;;3.70;99.90;;;;;;5009882;28;20505;-71
2021/03/15 06:49:34;;;;;;;2.17;2.07;;;3.70;99.90;;;;;;5014099;28;20198;-69
2021/03/15 06:52:10;;;;;;;2.60;2.40;;;3.80;99.90;;;;;;5011835;28;20457;-70
2021/03/15 06:54:35;;;;;;;4.30;3.07;;;3.90;99.90;;;;;;5010660;28;20187;-70
2021/03/15 06:57:21;;;;;;;2.43;2.23;;;4.00;99.90;;;;;;5013823;28;20439;-70
2021/03/15 06:59:54;;;;;;;2.60;2.27;;;3.90;99.90;;;;;;5009864;28;21322;-69
2021/03/15 07:02:28;;;;;;;2.03;1.93;;;4.00;99.90;;;;;;5014278;28;20440;-71
2021/03/15 07:05:06;;;;;;;2.67;2.47;;;4.00;99.90;;;;;;5012818;28;20465;-70
2021/03/15 07:07:32;;;;;;;3.00;1.97;;;4.10;99.90;;;;;;5013268;28;20833;-70
2021/03/15 07:09:57;;;;;;;1.93;1.80;;;4.00;99.90;;;;;;5014321;28;20488;-70
2021/03/15 07:12:25;;;;;;;1.27;1.23;;;4.00;99.90;;;;;;5016292;28;20215;-71
2021/03/15 07:14:52;;;;;;;2.30;2.10;;;4.10;99.90;;;;;;5010612;28;20757;-71
2021/03/15 07:17:26;;;;;;;1.83;1.40;;;4.10;99.90;;;;;;5011503;28;20437;-69
2021/03/15 07:19:52;;;;;;;1.27;1.10;;;4.10;99.90;;;;;;5013695;28;20544;-70
2021/03/15 07:22:26;;;;;;;2.90;1.60;;;4.20;99.90;;;;;;5016821;28;20476;-69
2021/03/15 07:25:03;;;;;;;0.70;0.70;;;4.30;99.90;;;;;;5014729;28;20485;-70
2021/03/15 07:27:30;;;;;;;1.20;1.10;;;4.30;99.90;;;;;;5017662;28;21007;-70
2021/03/15 07:29:55;;;;;;;1.30;1.30;;;4.20;99.90;;;;;;5012508;28;20461;-70
2021/03/15 07:32:38;;;;;;;4.13;1.17;;;4.20;99.90;;;;;;5010206;28;20434;-70
2021/03/15 07:35:23;;;;;;;3.20;1.10;;;4.10;99.90;;;;;;5015899;28;20213;-70
2021/03/15 07:37:48;;;;;;;2.97;1.13;;;4.00;99.90;;;;;;5011309;28;20472;-70
2021/03/15 07:40:36;;;;;;;1.90;1.07;;;3.80;99.90;;;;;;5010359;28;20444;-70
2021/03/15 07:43:07;;;;;;;2.93;1.00;;;3.70;99.90;;;;;;5015065;28;20251;-70
2021/03/15 07:45:38;;;;;;;0.80;0.80;;;3.60;99.90;;;;;;5012965;28;20952;-70
2021/03/15 07:48:08;;;;;;;1.37;1.03;;;3.60;99.90;;;;;;5011754;28;20574;-70
2021/03/15 07:50:34;;;;;;;4.43;1.17;;;3.60;99.90;;;;;;5014531;28;20494;-70
2021/03/15 07:53:01;;;;;;;2.20;1.13;;;3.60;99.90;;;;;;5013965;28;20437;-70
2021/03/15 07:55:41;;;;;;;0.90;0.90;;;3.60;99.90;;;;;;5014594;28;20425;-70
2021/03/15 07:58:43;;;;;;;1.43;1.33;;;3.60;99.90;;;;;;5016260;28;20434;-70
2021/03/15 08:01:09;;;;;;;2.80;1.00;;;3.60;99.90;;;;;;4979036;28;20447;-70
2021/03/15 08:03:37;;;;;;;2.60;1.10;;;3.70;99.90;;;;;;5015975;28;20866;-70
2021/03/15 08:06:03;;;;;;;1.20;1.10;;;3.70;99.90;;;;;;5014927;28;20837;-71
2021/03/15 08:08:30;;;;;;;1.63;1.20;;;3.70;99.90;;;;;;5011180;28;20437;-70
2021/03/15 08:10:57;;;;;;;0.77;0.77;;;3.80;99.90;;;;;;5012807;28;20461;-71
2021/03/15 08:13:25;;;;;;;1.30;1.20;;;3.90;99.90;;;;;;5013464;28;20431;-70
2021/03/15 08:15:53;;;;;;;1.80;0.97;;;4.00;99.90;;;;;;5013833;28;20436;-70
2021/03/15 08:18:22;;;;;;;0.80;0.80;;;4.20;99.90;;;;;;5016381;28;20461;-70
2021/03/15 08:20:51;;;;;;;0.80;0.80;;;4.20;99.90;;;;;;5013619;28;20459;-68
2021/03/15 08:23:18;;;;;;;3.13;0.90;;;4.30;99.90;;;;;;5013748;28;20500;-71
2021/03/15 08:25:47;;;;;;;0.80;0.80;;;4.60;99.90;;;;;;5013756;28;20440;-71
2021/03/15 08:28:14;;;;;;;0.90;0.90;;;4.60;99.90;;;;;;5025377;28;20485;-70
2021/03/15 08:30:48;;;;;;;0.90;0.70;;;4.80;99.90;;;;;;5013467;28;20459;-69
2021/03/15 08:33:16;;;;;;;0.80;0.80;;;4.90;99.90;;;;;;5014661;28;20431;-70
2021/03/15 08:35:42;;;;;;;1.10;0.70;;;4.90;99.90;;;;;;5015298;28;20994;-70
2021/03/15 08:38:08;;;;;;;0.80;0.80;;;4.90;99.90;;;;;;5015349;28;20433;-70
2021/03/15 08:40:47;;;;;;;0.67;0.67;;;5.00;99.90;;;;;;5002919;28;20569;-71
2021/03/15 08:43:18;;;;;;;1.63;0.50;;;4.90;99.90;;;;;;5014333;28;20427;-71
2021/03/15 08:45:54;;;;;;;0.70;0.70;;;4.90;99.90;;;;;;5010005;28;20433;-71
2021/03/15 08:48:40;;;;;;;0.70;0.67;;;4.90;99.90;;;;;;5015668;28;20491;-70
2021/03/15 08:51:06;;;;;;;0.83;0.83;;;4.90;99.90;;;;;;5014078;28;20437;-70
2021/03/15 08:53:38;;;;;;;0.50;0.50;;;4.90;99.90;;;;;;5010720;28;20478;-70
2021/03/15 08:56:21;;;;;;;1.73;0.90;;;5.00;99.90;;;;;;5010404;28;20907;-71
2021/03/15 08:58:51;;;;;;;3.90;0.87;;;4.90;99.90;;;;;;5012554;28;20451;-70
2021/03/15 09:01:20;;;;;;;0.73;0.73;;;4.90;99.90;;;;;;5013039;28;20471;-70
2021/03/15 09:03:47;;;;;;;0.60;0.60;;;4.90;99.90;;;;;;5011129;28;20532;-71
2021/03/15 09:06:13;;;;;;;2.90;0.73;;;4.90;99.90;;;;;;5016007;28;20870;-71
2021/03/15 09:09:06;;;;;;;1.27;0.97;;;4.90;99.90;;;;;;5011091;28;20487;-69
2021/03/15 09:11:37;;;;;;;0.57;0.57;;;4.90;99.90;;;;;;5010718;28;20192;-71
2021/03/15 09:14:17;;;;;;;0.70;0.50;;;5.00;99.90;;;;;;5011596;28;20431;-71
2021/03/15 09:16:44;;;;;;;0.57;0.50;;;5.00;99.90;;;;;;5003552;28;20483;-70
2021/03/15 09:19:20;;;;;;;0.50;0.50;;;5.00;99.90;;;;;;5014858;28;20454;-69
2021/03/15 09:21:51;;;;;;;0.70;0.70;;;4.90;99.90;;;;;;5010083;28;20433;-70
2021/03/15 09:24:44;;;;;;;0.47;0.40;;;5.00;99.90;;;;;;5009174;28;20429;-70
2021/03/15 09:27:20;;;;;;;0.77;0.77;;;5.00;99.90;;;;;;5012130;28;20532;-70
2021/03/15 09:29:58;;;;;;;0.70;0.60;;;5.10;99.90;;;;;;5013476;28;20910;-70
2021/03/15 09:32:53;;;;;;;3.23;0.70;;;5.10;99.90;;;;;;5012570;28;20934;-70
2021/03/15 09:35:18;;;;;;;0.60;0.60;;;5.20;99.90;;;;;;5019010;28;20441;-70
2021/03/15 09:37:50;;;;;;;0.90;0.77;;;5.30;99.90;;;;;;5013476;28;20848;-70
2021/03/15 09:40:16;;;;;;;0.73;0.73;;;5.40;99.90;;;;;;5014275;28;20219;-70
2021/03/15 09:42:43;;;;;;;0.97;0.90;;;5.40;99.90;;;;;;5013038;28;20447;-71
2021/03/15 09:45:12;;;;;;;0.83;0.83;;;5.50;99.90;;;;;;5002734;28;20847;-70
2021/03/15 09:47:37;;;;;;;1.67;1.60;;;5.50;99.90;;;;;;5002499;28;20475;-71
2021/03/15 09:50:25;;;;;;;2.07;1.27;;;5.60;99.90;;;;;;5007755;28;20464;-70
2021/03/15 09:52:51;;;;;;;2.07;0.90;;;5.60;99.90;;;;;;5009357;28;20175;-70
2021/03/15 09:55:17;;;;;;;1.30;1.20;;;5.70;99.90;;;;;;5007298;28;20814;-71
2021/03/15 09:57:43;;;;;;;2.33;1.53;;;5.70;99.90;;;;;;5006637;28;20279;-71
2021/03/15 10:00:14;;;;;;;1.37;1.27;;;5.70;99.90;;;;;;5011927;28;20471;-70
2021/03/15 10:02:40;;;;;;;1.50;1.40;;;5.80;99.90;;;;;;5008987;28;20213;-71
2021/03/15 10:05:07;;;;;;;1.30;1.00;;;5.80;99.90;;;;;;5009003;28;20492;-70
2021/03/15 10:07:39;;;;;;;2.50;1.77;;;6.00;99.90;;;;;;5012232;28;20475;-70
2021/03/15 10:10:09;;;;;;;0.93;0.93;;;6.10;99.90;;;;;;5009764;28;20460;-71
2021/03/15 10:12:35;;;;;;;1.63;1.40;;;6.20;99.90;;;;;;5011942;28;20497;-71
2021/03/15 10:15:06;;;;;;;1.57;1.47;;;6.30;99.90;;;;;;5014317;28;20432;-71
2021/03/15 10:17:32;;;;;;;2.10;1.27;;;6.40;99.90;;;;;;5008282;28;20535;-70
2021/03/15 10:19:58;;;;;;;1.10;1.10;;;6.30;99.90;;;;;;5008030;28;20456;-70
2021/03/15 10:22:23;;;;;;;3.53;1.70;;;6.30;99.90;;;;;;5002633;28;20261;-70
2021/03/15 10:24:50;;;;;;;4.70;1.77;;;6.20;99.90;;;;;;5011245;28;20228;-70
2021/03/15 10:27:26;;;;;;;3.83;1.70;;;6.20;99.90;;;;;;5009238;28;20218;-70
2021/03/15 10:30:11;;;;;;;1.87;1.77;;;6.20;99.90;;;;;;5005298;28;20480;-71
2021/03/15 10:32:40;;;;;;;1.63;1.40;;;6.20;99.90;;;;;;5007429;28;20441;-70
2021/03/15 10:35:07;;;;;;;1.20;1.17;;;6.20;99.90;;;;;;5012919;28;20434;-70
2021/03/15 10:37:35;;;;;;;3.00;2.10;;;6.30;99.90;;;;;;5017219;28;20412;-71
2021/03/15 10:40:02;;;;;;;4.03;1.80;;;6.30;99.90;;;;;;5005793;28;20475;-70
2021/03/15 10:42:28;;;;;;;1.73;1.53;;;6.30;99.90;;;;;;5004902;28;20891;-70
2021/03/15 10:44:55;;;;;;;1.60;1.50;;;6.20;99.90;;;;;;5003112;28;20467;-72
2021/03/15 10:47:35;;;;;;;1.60;1.50;;;6.30;99.90;;;;;;5007703;28;20503;-71
2021/03/15 10:50:02;;;;;;;2.20;1.30;;;6.30;99.90;;;;;;5010535;28;20442;-71
2021/03/15 10:52:29;;;;;;;1.37;1.10;;;6.50;99.90;;;;;;5012049;28;20412;-71
2021/03/15 10:55:07;;;;;;;1.50;1.37;;;6.60;99.90;;;;;;5011282;28;20429;-69
2021/03/15 10:57:33;;;;;;;1.50;1.07;;;6.70;99.90;;;;;;5014952;28;20497;-72
2021/03/15 10:59:58;;;;;;;1.30;1.20;;;6.90;99.90;;;;;;5010948;28;20459;-71
2021/03/15 11:02:26;;;;;;;1.33;1.23;;;7.10;99.90;;;;;;5009879;28;20192;-72
2021/03/15 11:04:55;;;;;;;1.40;1.30;;;7.20;99.90;;;;;;5008502;28;20191;-71
2021/03/15 11:07:20;;;;;;;1.53;1.20;;;7.20;99.90;;;;;;5014714;28;20440;-71
2021/03/15 11:09:57;;;;;;;1.60;1.50;;;7.10;99.90;;;;;;5012522;28;20467;-71
2021/03/15 11:12:35;;;;;;;1.67;1.20;;;7.10;99.90;;;;;;5008723;28;20179;-72
2021/03/15 11:15:35;;;;;;;2.17;1.60;;;7.20;99.90;;;;;;4999738;28;20482;-71
2021/03/15 11:18:07;;;;;;;3.27;1.63;;;7.20;99.90;;;;;;5007361;28;20474;-71
2021/03/15 11:20:54;;;;;;;1.73;1.63;;;7.20;99.90;;;;;;5014421;28;20448;-71
2021/03/15 11:23:28;;;;;;;1.33;1.30;;;7.30;99.90;;;;;;5011343;28;20436;-72
2021/03/15 11:26:12;;;;;;;1.70;1.60;;;7.40;99.90;;;;;;5012847;28;20798;-72
2021/03/15 11:28:40;;;;;;;2.20;2.00;;;7.40;99.90;;;;;;5012936;28;20431;-71
2021/03/15 11:31:13;;;;;;;1.83;1.60;;;7.30;99.90;;;;;;5015994;28;20936;-71
2021/03/15 11:33:38;;;;;;;1.90;1.80;;;7.30;99.90;;;;;;5013091;28;20442;-69
2021/03/15 11:36:19;;;;;;;1.80;1.70;;;7.40;99.90;;;;;;5012213;28;21110;-69
2021/03/15 11:39:11;;;;;;;1.77;1.67;;;7.40;99.90;;;;;;5008145;28;20179;-73
2021/03/15 11:41:39;;;;;;;1.63;1.30;;;7.30;99.90;;;;;;5010069;28;20442;-71
2021/03/15 11:44:04;;;;;;;1.73;1.67;;;7.30;99.90;;;;;;5010545;28;20426;-71
2021/03/15 11:46:30;;;;;;;1.90;1.80;;;7.20;99.90;;;;;;5010498;28;21105;-71
2021/03/15 11:48:56;;;;;;;1.77;1.67;;;7.10;99.90;;;;;;5013172;28;20245;-69
2021/03/15 11:51:21;;;;;;;2.43;2.23;;;7.10;99.90;;;;;;5012410;28;20217;-72
2021/03/15 11:53:47;;;;;;;2.60;2.40;;;7.30;99.90;;;;;;5009804;28;20182;-70
2021/03/15 11:56:13;;;;;;;2.20;1.90;;;7.30;99.90;;;;;;5011046;28;20183;-70
2021/03/15 11:58:39;;;;;;;2.37;2.17;;;7.20;99.90;;;;;;5011489;28;20328;-68
2021/03/15 12:01:06;;;;;;;1.43;1.33;;;7.20;99.90;;;;;;5012217;28;20425;-70
2021/03/15 12:03:32;;;;;;;2.00;1.90;;;7.20;99.90;;;;;;5007040;28;20995;-70
2021/03/15 12:05:58;;;;;;;1.77;1.67;;;7.20;99.90;;;;;;5005455;28;20561;-66
2021/03/15 12:08:24;;;;;;;1.67;1.57;;;7.30;99.90;;;;;;5001363;28;20510;-69
2021/03/15 12:10:50;;;;;;;1.67;1.57;;;7.30;99.90;;;;;;5006944;28;20442;-69
2021/03/15 12:13:16;;;;;;;1.90;1.80;;;7.30;99.90;;;;;;5002924;28;20439;-69
2021/03/15 12:15:41;;;;;;;2.00;1.90;;;7.20;99.90;;;;;;5006573;28;20237;-69
2021/03/15 12:18:08;;;;;;;2.90;2.47;;;7.10;99.90;;;;;;5003712;28;20214;-69
2021/03/15 12:20:34;;;;;;;3.03;2.83;;;6.90;99.90;;;;;;5005409;28;20198;-69
2021/03/15 12:23:01;;;;;;;8.83;2.07;;;6.90;99.90;;;;;;5000524;28;20799;-70
2021/03/15 12:25:27;;;;;;;2.50;2.30;;;6.90;99.90;;;;;;5006723;28;20425;-70
2021/03/15 12:27:53;;;;;;;3.30;2.27;;;6.90;99.90;;;;;;5003113;28;20996;-70
2021/03/15 12:30:20;;;;;;;2.73;2.60;;;6.90;99.90;;;;;;5013727;28;20200;-70
2021/03/15 12:32:46;;;;;;;2.70;2.50;;;7.00;99.90;;;;;;5006313;28;20801;-69
2021/03/15 12:35:12;;;;;;;2.63;2.43;;;7.10;99.90;;;;;;5003017;28;20496;-70
2021/03/15 12:37:37;;;;;;;2.00;1.90;;;7.30;99.90;;;;;;5010023;28;20439;-69
2021/03/15 12:40:04;;;;;;;2.03;1.93;;;7.50;99.90;;;;;;5006729;28;20822;-69
2021/03/15 12:42:30;;;;;;;7.23;2.00;;;7.70;99.90;;;;;;5012469;28;20611;-69
2021/03/15 12:44:55;;;;;;;2.87;2.70;;;7.70;99.90;;;;;;5010188;28;20536;-69
2021/03/15 12:47:21;;;;;;;2.10;2.00;;;7.80;99.90;;;;;;5005285;28;20211;-69
2021/03/15 12:49:47;;;;;;;4.67;2.73;;;8.20;99.90;;;;;;5005345;28;20231;-69
2021/03/15 12:52:13;;;;;;;2.10;2.00;;;8.50;99.90;;;;;;5010748;28;20182;-69
2021/03/15 12:54:39;;;;;;;2.60;2.40;;;8.80;99.90;;;;;;5013184;28;20445;-70
2021/03/15 12:57:05;;;;;;;4.20;2.17;;;9.00;99.90;;;;;;5012851;28;20176;-69
2021/03/15 12:59:30;;;;;;;2.30;2.10;;;9.20;99.90;;;;;;5008965;28;20498;-70
2021/03/15 13:01:56;;;;;;;2.83;2.60;;;9.20;99.90;;;;;;5009898;28;20437;-72
2021/03/15 13:04:21;;;;;;;1.90;1.80;;;9.20;99.90;;;;;;5003744;28;20215;-70
2021/03/15 13:06:47;;;;;;;2.40;2.30;;;9.10;99.90;;;;;;5009990;28;20248;-69
2021/03/15 13:09:12;;;;;;;2.13;1.80;;;9.20;99.90;;;;;;5007069;28;20315;-70
2021/03/15 13:11:38;;;;;;;2.87;2.10;;;9.00;99.90;;;;;;5003594;28;20207;-71
2021/03/15 13:14:04;;;;;;;2.40;2.07;;;9.10;99.90;;;;;;5009411;28;20256;-70